sensor_id;sensor_type;location;lat;lon;timestamp;P1;durP1;ratioP1;P2;durP2;ratioP2
77055;SDS011;67471;44.918;8.614;2023-04-03T00:02:01;6.20;;;4.30;;
77055;SDS011;67471;44.918;8.614;2023-04-03T00:05:10;6.88;;;4.07;;
77055;SDS011;67471;44.918;8.614;2023-04-03T00:08:14;5.80;;;4.05;;
77055;SDS011;67471;44.918;8.614;2023-04-03T00:11:18;7.22;;;4.63;;
77055;SDS011;67471;44.918;8.614;2023-04-03T00:14:24;9.20;;;5.30;;
77055;SDS011;67471;44.918;8.614;2023-04-03T00:17:27;8.18;;;5.40;;
77055;SDS011;67471;44.918;8.614;2023-04-03T00:20:31;11.48;;;5.60;;
77055;SDS011;67471;44.918;8.614;2023-04-03T00:23:36;8.75;;;5.28;;
77055;SDS011;67471;44.918;8.614;2023-04-03T00:26:40;7.88;;;5.32;;
77055;SDS011;67471;44.918;8.614;2023-04-03T00:29:44;7.82;;;5.68;;
77055;SDS011;67471;44.918;8.614;2023-04-03T00:32:48;8.35;;;5.72;;
77055;SDS011;67471;44.918;8.614;2023-04-03T00:35:52;10.48;;;6.40;;
77055;SDS011;67471;44.918;8.614;2023-04-03T00:38:56;8.63;;;5.55;;
77055;SDS011;67471;44.918;8.614;2023-04-03T00:42:00;7.45;;;5.47;;
77055;SDS011;67471;44.918;8.614;2023-04-03T00:48:10;11.23;;;5.47;;
77055;SDS011;67471;44.918;8.614;2023-04-03T00:51:18;9.98;;;5.85;;
77055;SDS011;67471;44.918;8.614;2023-04-03T00:54:26;8.07;;;4.90;;
77055;SDS011;67471;44.918;8.614;2023-04-03T00:57:30;8.38;;;4.82;;
77055;SDS011;67471;44.918;8.614;2023-04-03T01:00:35;8.82;;;5.18;;
77055;SDS011;67471;44.918;8.614;2023-04-03T01:03:42;8.25;;;5.35;;
77055;SDS011;67471;44.918;8.614;2023-04-03T01:06:46;7.55;;;4.75;;
77055;SDS011;67471;44.918;8.614;2023-04-03T01:09:51;8.63;;;5.55;;
77055;SDS011;67471;44.918;8.614;2023-04-03T01:12:57;9.52;;;6.18;;
77055;SDS011;67471;44.918;8.614;2023-04-03T01:16:04;8.45;;;5.60;;
77055;SDS011;67471;44.918;8.614;2023-04-03T01:19:11;12.13;;;6.13;;
77055;SDS011;67471;44.918;8.614;2023-04-03T01:22:19;9.60;;;5.57;;
77055;SDS011;67471;44.918;8.614;2023-04-03T01:25:32;8.02;;;5.82;;
77055;SDS011;67471;44.918;8.614;2023-04-03T01:28:37;10.48;;;6.18;;
77055;SDS011;67471;44.918;8.614;2023-04-03T01:31:54;9.73;;;6.28;;
77055;SDS011;67471;44.918;8.614;2023-04-03T01:38:05;9.23;;;5.55;;
77055;SDS011;67471;44.918;8.614;2023-04-03T01:41:09;10.77;;;5.90;;
77055;SDS011;67471;44.918;8.614;2023-04-03T01:44:13;7.55;;;5.20;;
77055;SDS011;67471;44.918;8.614;2023-04-03T01:47:16;11.18;;;5.38;;
77055;SDS011;67471;44.918;8.614;2023-04-03T01:50:20;9.07;;;5.50;;
77055;SDS011;67471;44.918;8.614;2023-04-03T01:53:25;9.38;;;6.43;;
77055;SDS011;67471;44.918;8.614;2023-04-03T01:56:28;11.00;;;6.25;;
77055;SDS011;67471;44.918;8.614;2023-04-03T01:59:32;11.90;;;6.70;;
77055;SDS011;67471;44.918;8.614;2023-04-03T02:02:36;9.70;;;6.10;;
77055;SDS011;67471;44.918;8.614;2023-04-03T02:05:40;11.07;;;6.72;;
77055;SDS011;67471;44.918;8.614;2023-04-03T02:08:44;8.40;;;5.70;;
77055;SDS011;67471;44.918;8.614;2023-04-03T02:11:48;12.45;;;5.95;;
77055;SDS011;67471;44.918;8.614;2023-04-03T02:14:51;8.25;;;5.40;;
77055;SDS011;67471;44.918;8.614;2023-04-03T02:17:55;9.38;;;6.15;;
77055;SDS011;67471;44.918;8.614;2023-04-03T02:20:59;10.32;;;6.47;;
77055;SDS011;67471;44.918;8.614;2023-04-03T02:24:03;8.32;;;5.82;;
77055;SDS011;67471;44.918;8.614;2023-04-03T02:27:07;8.98;;;5.22;;
77055;SDS011;67471;44.918;8.614;2023-04-03T02:30:11;9.77;;;5.80;;
77055;SDS011;67471;44.918;8.614;2023-04-03T02:33:15;8.35;;;5.85;;
77055;SDS011;67471;44.918;8.614;2023-04-03T02:36:19;7.65;;;5.18;;
77055;SDS011;67471;44.918;8.614;2023-04-03T02:39:28;8.07;;;5.47;;
77055;SDS011;67471;44.918;8.614;2023-04-03T02:42:33;9.95;;;5.30;;
77055;SDS011;67471;44.918;8.614;2023-04-03T02:45:37;7.75;;;5.18;;
77055;SDS011;67471;44.918;8.614;2023-04-03T02:48:41;11.90;;;5.93;;
77055;SDS011;67471;44.918;8.614;2023-04-03T02:51:45;7.40;;;5.28;;
77055;SDS011;67471;44.918;8.614;2023-04-03T02:54:49;7.88;;;5.35;;
77055;SDS011;67471;44.918;8.614;2023-04-03T02:57:54;7.82;;;5.15;;
77055;SDS011;67471;44.918;8.614;2023-04-03T03:00:57;12.73;;;5.57;;
77055;SDS011;67471;44.918;8.614;2023-04-03T03:04:01;8.82;;;5.47;;
77055;SDS011;67471;44.918;8.614;2023-04-03T03:07:05;9.48;;;5.55;;
77055;SDS011;67471;44.918;8.614;2023-04-03T03:10:09;8.63;;;5.05;;
77055;SDS011;67471;44.918;8.614;2023-04-03T03:13:12;9.95;;;5.43;;
77055;SDS011;67471;44.918;8.614;2023-04-03T03:16:16;7.18;;;4.65;;
77055;SDS011;67471;44.918;8.614;2023-04-03T03:19:20;7.95;;;4.85;;
77055;SDS011;67471;44.918;8.614;2023-04-03T03:22:26;7.85;;;5.25;;
77055;SDS011;67471;44.918;8.614;2023-04-03T03:25:29;8.20;;;5.50;;
77055;SDS011;67471;44.918;8.614;2023-04-03T03:28:33;7.95;;;4.80;;
77055;SDS011;67471;44.918;8.614;2023-04-03T03:31:39;10.82;;;5.53;;
77055;SDS011;67471;44.918;8.614;2023-04-03T03:34:44;9.70;;;4.70;;
77055;SDS011;67471;44.918;8.614;2023-04-03T03:37:48;9.68;;;5.15;;
77055;SDS011;67471;44.918;8.614;2023-04-03T03:40:52;9.10;;;4.80;;
77055;SDS011;67471;44.918;8.614;2023-04-03T03:43:57;13.27;;;5.03;;
77055;SDS011;67471;44.918;8.614;2023-04-03T03:47:01;8.80;;;4.97;;
77055;SDS011;67471;44.918;8.614;2023-04-03T03:50:07;9.57;;;5.78;;
77055;SDS011;67471;44.918;8.614;2023-04-03T03:53:12;7.38;;;5.00;;
77055;SDS011;67471;44.918;8.614;2023-04-03T03:56:15;9.30;;;4.82;;
77055;SDS011;67471;44.918;8.614;2023-04-03T03:59:21;9.63;;;4.53;;
77055;SDS011;67471;44.918;8.614;2023-04-03T04:02:25;8.18;;;4.68;;
77055;SDS011;67471;44.918;8.614;2023-04-03T04:05:30;10.75;;;5.65;;
77055;SDS011;67471;44.918;8.614;2023-04-03T04:08:36;7.38;;;4.40;;
77055;SDS011;67471;44.918;8.614;2023-04-03T04:11:42;10.40;;;4.53;;
77055;SDS011;67471;44.918;8.614;2023-04-03T04:14:49;7.40;;;4.75;;
77055;SDS011;67471;44.918;8.614;2023-04-03T04:17:53;7.68;;;4.90;;
77055;SDS011;67471;44.918;8.614;2023-04-03T04:20:57;10.25;;;4.70;;
77055;SDS011;67471;44.918;8.614;2023-04-03T04:24:02;10.82;;;4.55;;
77055;SDS011;67471;44.918;8.614;2023-04-03T04:27:06;7.65;;;4.43;;
77055;SDS011;67471;44.918;8.614;2023-04-03T04:30:11;8.82;;;5.13;;
77055;SDS011;67471;44.918;8.614;2023-04-03T04:33:15;7.55;;;4.70;;
77055;SDS011;67471;44.918;8.614;2023-04-03T04:36:21;8.80;;;4.63;;
77055;SDS011;67471;44.918;8.614;2023-04-03T04:39:25;7.82;;;4.93;;
77055;SDS011;67471;44.918;8.614;2023-04-03T04:42:31;8.40;;;5.30;;
77055;SDS011;67471;44.918;8.614;2023-04-03T04:45:36;9.40;;;4.45;;
77055;SDS011;67471;44.918;8.614;2023-04-03T04:48:40;7.82;;;4.97;;
77055;SDS011;67471;44.918;8.614;2023-04-03T04:51:44;13.02;;;5.20;;
77055;SDS011;67471;44.918;8.614;2023-04-03T04:54:49;8.10;;;4.80;;
77055;SDS011;67471;44.918;8.614;2023-04-03T04:57:53;9.63;;;5.40;;
77055;SDS011;67471;44.918;8.614;2023-04-03T05:01:08;7.68;;;5.15;;
77055;SDS011;67471;44.918;8.614;2023-04-03T05:04:20;7.78;;;4.65;;
77055;SDS011;67471;44.918;8.614;2023-04-03T05:07:28;7.95;;;5.00;;
77055;SDS011;67471;44.918;8.614;2023-04-03T05:10:33;7.90;;;4.85;;
77055;SDS011;67471;44.918;8.614;2023-04-03T05:13:38;6.97;;;4.25;;
77055;SDS011;67471;44.918;8.614;2023-04-03T05:16:41;6.88;;;4.03;;
77055;SDS011;67471;44.918;8.614;2023-04-03T05:19:45;11.48;;;5.38;;
77055;SDS011;67471;44.918;8.614;2023-04-03T05:22:49;11.45;;;5.65;;
77055;SDS011;67471;44.918;8.614;2023-04-03T05:25:53;9.05;;;4.97;;
77055;SDS011;67471;44.918;8.614;2023-04-03T05:28:58;8.30;;;5.00;;
77055;SDS011;67471;44.918;8.614;2023-04-03T05:32:02;9.05;;;4.57;;
77055;SDS011;67471;44.918;8.614;2023-04-03T05:35:07;8.00;;;5.35;;
77055;SDS011;67471;44.918;8.614;2023-04-03T05:38:11;9.15;;;5.10;;
77055;SDS011;67471;44.918;8.614;2023-04-03T05:41:15;10.90;;;5.93;;
77055;SDS011;67471;44.918;8.614;2023-04-03T05:44:21;9.65;;;5.53;;
77055;SDS011;67471;44.918;8.614;2023-04-03T05:47:26;8.05;;;5.18;;
77055;SDS011;67471;44.918;8.614;2023-04-03T05:50:30;8.38;;;5.35;;
77055;SDS011;67471;44.918;8.614;2023-04-03T05:53:35;6.75;;;4.43;;
77055;SDS011;67471;44.918;8.614;2023-04-03T05:56:43;7.73;;;4.23;;
77055;SDS011;67471;44.918;8.614;2023-04-03T05:59:47;7.50;;;4.05;;
77055;SDS011;67471;44.918;8.614;2023-04-03T06:02:52;6.55;;;4.28;;
77055;SDS011;67471;44.918;8.614;2023-04-03T06:06:01;7.53;;;4.38;;
77055;SDS011;67471;44.918;8.614;2023-04-03T06:09:07;7.57;;;4.63;;
77055;SDS011;67471;44.918;8.614;2023-04-03T06:12:10;7.60;;;4.47;;
77055;SDS011;67471;44.918;8.614;2023-04-03T06:15:14;8.20;;;4.00;;
77055;SDS011;67471;44.918;8.614;2023-04-03T06:18:20;7.28;;;4.18;;
77055;SDS011;67471;44.918;8.614;2023-04-03T06:21:23;9.63;;;4.15;;
77055;SDS011;67471;44.918;8.614;2023-04-03T06:24:27;6.55;;;3.85;;
77055;SDS011;67471;44.918;8.614;2023-04-03T06:27:31;6.85;;;4.43;;
77055;SDS011;67471;44.918;8.614;2023-04-03T06:30:35;10.82;;;4.40;;
77055;SDS011;67471;44.918;8.614;2023-04-03T06:33:39;6.40;;;4.43;;
77055;SDS011;67471;44.918;8.614;2023-04-03T06:36:44;8.38;;;4.30;;
77055;SDS011;67471;44.918;8.614;2023-04-03T06:39:48;6.22;;;4.80;;
77055;SDS011;67471;44.918;8.614;2023-04-03T06:42:51;6.43;;;4.18;;
77055;SDS011;67471;44.918;8.614;2023-04-03T06:45:56;6.72;;;4.25;;
77055;SDS011;67471;44.918;8.614;2023-04-03T06:49:00;6.22;;;3.90;;
77055;SDS011;67471;44.918;8.614;2023-04-03T06:52:04;7.20;;;3.88;;
77055;SDS011;67471;44.918;8.614;2023-04-03T06:55:08;6.90;;;4.05;;
77055;SDS011;67471;44.918;8.614;2023-04-03T06:58:13;7.57;;;4.45;;
77055;SDS011;67471;44.918;8.614;2023-04-03T07:01:18;6.78;;;3.70;;
77055;SDS011;67471;44.918;8.614;2023-04-03T07:04:24;11.48;;;3.90;;
77055;SDS011;67471;44.918;8.614;2023-04-03T07:07:28;6.68;;;4.35;;
77055;SDS011;67471;44.918;8.614;2023-04-03T07:10:32;6.85;;;4.07;;
77055;SDS011;67471;44.918;8.614;2023-04-03T07:13:36;8.00;;;4.22;;
77055;SDS011;67471;44.918;8.614;2023-04-03T07:16:39;5.30;;;4.10;;
77055;SDS011;67471;44.918;8.614;2023-04-03T07:19:43;7.28;;;4.50;;
77055;SDS011;67471;44.918;8.614;2023-04-03T07:22:47;5.55;;;3.75;;
77055;SDS011;67471;44.918;8.614;2023-04-03T07:25:51;7.28;;;3.70;;
77055;SDS011;67471;44.918;8.614;2023-04-03T07:28:56;4.93;;;3.70;;
77055;SDS011;67471;44.918;8.614;2023-04-03T07:32:01;4.85;;;3.22;;
77055;SDS011;67471;44.918;8.614;2023-04-03T07:35:05;6.07;;;3.47;;
77055;SDS011;67471;44.918;8.614;2023-04-03T07:38:09;9.20;;;4.15;;
77055;SDS011;67471;44.918;8.614;2023-04-03T07:41:14;7.05;;;4.90;;
77055;SDS011;67471;44.918;8.614;2023-04-03T07:44:19;5.78;;;3.58;;
77055;SDS011;67471;44.918;8.614;2023-04-03T07:47:23;6.03;;;3.60;;
77055;SDS011;67471;44.918;8.614;2023-04-03T07:50:27;5.03;;;3.13;;
77055;SDS011;67471;44.918;8.614;2023-04-03T07:53:31;5.53;;;3.78;;
77055;SDS011;67471;44.918;8.614;2023-04-03T07:56:35;4.43;;;3.28;;
77055;SDS011;67471;44.918;8.614;2023-04-03T07:59:38;6.40;;;3.25;;
77055;SDS011;67471;44.918;8.614;2023-04-03T08:02:45;5.13;;;3.30;;
77055;SDS011;67471;44.918;8.614;2023-04-03T08:05:53;4.63;;;3.35;;
77055;SDS011;67471;44.918;8.614;2023-04-03T08:08:57;8.07;;;3.50;;
77055;SDS011;67471;44.918;8.614;2023-04-03T08:12:02;6.65;;;3.40;;
77055;SDS011;67471;44.918;8.614;2023-04-03T08:15:06;4.30;;;3.08;;
77055;SDS011;67471;44.918;8.614;2023-04-03T08:18:11;5.97;;;3.63;;
77055;SDS011;67471;44.918;8.614;2023-04-03T08:21:14;11.55;;;3.47;;
77055;SDS011;67471;44.918;8.614;2023-04-03T08:24:19;5.72;;;3.22;;
77055;SDS011;67471;44.918;8.614;2023-04-03T08:27:23;7.53;;;3.67;;
77055;SDS011;67471;44.918;8.614;2023-04-03T08:30:27;5.82;;;3.17;;
77055;SDS011;67471;44.918;8.614;2023-04-03T08:33:31;5.10;;;3.20;;
77055;SDS011;67471;44.918;8.614;2023-04-03T08:36:35;4.70;;;2.88;;
77055;SDS011;67471;44.918;8.614;2023-04-03T08:39:39;7.45;;;3.42;;
77055;SDS011;67471;44.918;8.614;2023-04-03T08:42:49;5.30;;;2.85;;
77055;SDS011;67471;44.918;8.614;2023-04-03T08:46:01;5.47;;;3.00;;
77055;SDS011;67471;44.918;8.614;2023-04-03T08:49:15;6.43;;;2.80;;
77055;SDS011;67471;44.918;8.614;2023-04-03T08:52:32;4.68;;;3.20;;
77055;SDS011;67471;44.918;8.614;2023-04-03T08:55:39;5.18;;;2.70;;
77055;SDS011;67471;44.918;8.614;2023-04-03T08:58:48;5.60;;;3.13;;
77055;SDS011;67471;44.918;8.614;2023-04-03T09:01:56;5.40;;;3.30;;
77055;SDS011;67471;44.918;8.614;2023-04-03T09:05:05;9.27;;;3.85;;
77055;SDS011;67471;44.918;8.614;2023-04-03T09:08:33;10.95;;;3.92;;
77055;SDS011;67471;44.918;8.614;2023-04-03T09:15:22;6.50;;;4.78;;
77055;SDS011;67471;44.918;8.614;2023-04-03T09:18:33;8.93;;;4.57;;
77055;SDS011;67471;44.918;8.614;2023-04-03T09:21:43;7.03;;;4.22;;
77055;SDS011;67471;44.918;8.614;2023-04-03T09:24:48;10.32;;;4.47;;
77055;SDS011;67471;44.918;8.614;2023-04-03T09:27:58;9.25;;;4.47;;
77055;SDS011;67471;44.918;8.614;2023-04-03T09:31:09;6.90;;;4.75;;
77055;SDS011;67471;44.918;8.614;2023-04-03T09:34:26;6.20;;;4.65;;
77055;SDS011;67471;44.918;8.614;2023-04-03T09:40:38;6.50;;;3.85;;
77055;SDS011;67471;44.918;8.614;2023-04-03T09:43:51;8.02;;;4.68;;
77055;SDS011;67471;44.918;8.614;2023-04-03T09:46:58;6.82;;;4.18;;
77055;SDS011;67471;44.918;8.614;2023-04-03T09:50:17;7.07;;;4.32;;
77055;SDS011;67471;44.918;8.614;2023-04-03T09:56:42;6.15;;;3.97;;
77055;SDS011;67471;44.918;8.614;2023-04-03T09:59:57;6.40;;;4.28;;
77055;SDS011;67471;44.918;8.614;2023-04-03T10:03:03;6.78;;;4.60;;
77055;SDS011;67471;44.918;8.614;2023-04-03T10:06:21;9.13;;;4.25;;
77055;SDS011;67471;44.918;8.614;2023-04-03T10:09:31;8.07;;;4.22;;
77055;SDS011;67471;44.918;8.614;2023-04-03T10:12:36;10.45;;;4.68;;
77055;SDS011;67471;44.918;8.614;2023-04-03T10:15:44;8.15;;;3.97;;
77055;SDS011;67471;44.918;8.614;2023-04-03T10:25:40;9.85;;;4.38;;
77055;SDS011;67471;44.918;8.614;2023-04-03T10:35:25;8.25;;;4.40;;
77055;SDS011;67471;44.918;8.614;2023-04-03T10:39:00;8.38;;;4.55;;
77055;SDS011;67471;44.918;8.614;2023-04-03T10:42:18;8.02;;;5.13;;
77055;SDS011;67471;44.918;8.614;2023-04-03T10:45:27;7.15;;;4.75;;
77055;SDS011;67471;44.918;8.614;2023-04-03T10:48:52;8.38;;;5.07;;
77055;SDS011;67471;44.918;8.614;2023-04-03T10:52:24;9.30;;;4.93;;
77055;SDS011;67471;44.918;8.614;2023-04-03T11:02:49;8.00;;;5.72;;
77055;SDS011;67471;44.918;8.614;2023-04-03T11:05:59;11.52;;;5.03;;
77055;SDS011;67471;44.918;8.614;2023-04-03T11:09:27;11.52;;;6.55;;
77055;SDS011;67471;44.918;8.614;2023-04-03T11:15:38;9.98;;;5.38;;
77055;SDS011;67471;44.918;8.614;2023-04-03T11:18:43;8.75;;;5.05;;
77055;SDS011;67471;44.918;8.614;2023-04-03T11:25:17;10.02;;;5.85;;
77055;SDS011;67471;44.918;8.614;2023-04-03T11:28:25;8.38;;;5.38;;
77055;SDS011;67471;44.918;8.614;2023-04-03T11:31:39;9.50;;;6.13;;
77055;SDS011;67471;44.918;8.614;2023-04-03T11:34:45;6.95;;;4.93;;
77055;SDS011;67471;44.918;8.614;2023-04-03T11:37:52;11.47;;;6.80;;
77055;SDS011;67471;44.918;8.614;2023-04-03T11:40:57;10.13;;;6.05;;
77055;SDS011;67471;44.918;8.614;2023-04-03T11:44:06;10.70;;;5.20;;
77055;SDS011;67471;44.918;8.614;2023-04-03T11:47:46;10.07;;;5.32;;
77055;SDS011;67471;44.918;8.614;2023-04-03T11:50:58;6.80;;;4.45;;
77055;SDS011;67471;44.918;8.614;2023-04-03T12:01:07;7.90;;;4.47;;
77055;SDS011;67471;44.918;8.614;2023-04-03T12:04:13;7.13;;;4.18;;
77055;SDS011;67471;44.918;8.614;2023-04-03T12:07:19;7.32;;;4.50;;
77055;SDS011;67471;44.918;8.614;2023-04-03T12:10:23;6.47;;;4.57;;
77055;SDS011;67471;44.918;8.614;2023-04-03T12:13:27;8.73;;;4.88;;
77055;SDS011;67471;44.918;8.614;2023-04-03T12:19:41;8.73;;;4.72;;
77055;SDS011;67471;44.918;8.614;2023-04-03T12:29:46;7.95;;;5.35;;
77055;SDS011;67471;44.918;8.614;2023-04-03T12:33:04;10.20;;;5.28;;
77055;SDS011;67471;44.918;8.614;2023-04-03T12:36:25;10.23;;;4.53;;
77055;SDS011;67471;44.918;8.614;2023-04-03T12:46:44;8.75;;;5.60;;
77055;SDS011;67471;44.918;8.614;2023-04-03T12:49:50;7.03;;;4.28;;
77055;SDS011;67471;44.918;8.614;2023-04-03T12:52:59;6.72;;;4.35;;
77055;SDS011;67471;44.918;8.614;2023-04-03T12:59:34;5.10;;;3.35;;
77055;SDS011;67471;44.918;8.614;2023-04-03T13:02:38;6.03;;;3.00;;
77055;SDS011;67471;44.918;8.614;2023-04-03T13:05:48;4.35;;;2.67;;
77055;SDS011;67471;44.918;8.614;2023-04-03T13:08:52;5.35;;;3.20;;
77055;SDS011;67471;44.918;8.614;2023-04-03T13:12:07;4.57;;;2.80;;
77055;SDS011;67471;44.918;8.614;2023-04-03T13:15:19;5.40;;;2.40;;
77055;SDS011;67471;44.918;8.614;2023-04-03T13:18:32;21.42;;;14.52;;
77055;SDS011;67471;44.918;8.614;2023-04-03T13:21:37;6.35;;;3.63;;
77055;SDS011;67471;44.918;8.614;2023-04-03T13:24:41;4.53;;;2.72;;
77055;SDS011;67471;44.918;8.614;2023-04-03T13:27:45;4.47;;;2.75;;
77055;SDS011;67471;44.918;8.614;2023-04-03T13:30:59;4.85;;;2.85;;
77055;SDS011;67471;44.918;8.614;2023-04-03T13:40:33;6.43;;;2.80;;
77055;SDS011;67471;44.918;8.614;2023-04-03T13:43:37;4.40;;;2.45;;
77055;SDS011;67471;44.918;8.614;2023-04-03T13:46:41;6.63;;;3.05;;
77055;SDS011;67471;44.918;8.614;2023-04-03T13:49:46;4.63;;;2.60;;
77055;SDS011;67471;44.918;8.614;2023-04-03T13:53:12;6.68;;;2.92;;
77055;SDS011;67471;44.918;8.614;2023-04-03T13:56:23;4.10;;;1.88;;
77055;SDS011;67471;44.918;8.614;2023-04-03T13:59:37;4.95;;;1.50;;
77055;SDS011;67471;44.918;8.614;2023-04-03T14:02:41;3.10;;;1.40;;
77055;SDS011;67471;44.918;8.614;2023-04-03T14:05:44;3.30;;;1.70;;
77055;SDS011;67471;44.918;8.614;2023-04-03T14:08:49;3.05;;;1.45;;
77055;SDS011;67471;44.918;8.614;2023-04-03T14:11:54;4.25;;;1.80;;
77055;SDS011;67471;44.918;8.614;2023-04-03T14:15:10;3.13;;;1.77;;
77055;SDS011;67471;44.918;8.614;2023-04-03T14:18:21;4.45;;;1.55;;
77055;SDS011;67471;44.918;8.614;2023-04-03T14:21:25;3.60;;;1.70;;
77055;SDS011;67471;44.918;8.614;2023-04-03T14:24:29;3.05;;;1.60;;
77055;SDS011;67471;44.918;8.614;2023-04-03T14:27:40;4.40;;;1.52;;
77055;SDS011;67471;44.918;8.614;2023-04-03T14:30:46;2.38;;;1.40;;
77055;SDS011;67471;44.918;8.614;2023-04-03T14:33:51;2.58;;;1.42;;
77055;SDS011;67471;44.918;8.614;2023-04-03T14:36:55;2.58;;;1.50;;
77055;SDS011;67471;44.918;8.614;2023-04-03T14:40:00;3.25;;;1.48;;
77055;SDS011;67471;44.918;8.614;2023-04-03T14:43:08;2.93;;;1.60;;
77055;SDS011;67471;44.918;8.614;2023-04-03T14:46:26;3.42;;;1.30;;
77055;SDS011;67471;44.918;8.614;2023-04-03T14:49:33;2.97;;;1.77;;
77055;SDS011;67471;44.918;8.614;2023-04-03T14:52:38;2.85;;;1.77;;
77055;SDS011;67471;44.918;8.614;2023-04-03T14:55:43;2.72;;;1.85;;
77055;SDS011;67471;44.918;8.614;2023-04-03T14:58:49;3.42;;;1.85;;
77055;SDS011;67471;44.918;8.614;2023-04-03T15:02:00;3.30;;;1.70;;
77055;SDS011;67471;44.918;8.614;2023-04-03T15:05:05;3.97;;;1.70;;
77055;SDS011;67471;44.918;8.614;2023-04-03T15:08:29;2.97;;;1.25;;
77055;SDS011;67471;44.918;8.614;2023-04-03T15:11:33;4.10;;;1.48;;
77055;SDS011;67471;44.918;8.614;2023-04-03T15:14:37;6.22;;;2.22;;
77055;SDS011;67471;44.918;8.614;2023-04-03T15:17:41;3.88;;;2.00;;
77055;SDS011;67471;44.918;8.614;2023-04-03T15:20:45;3.65;;;1.80;;
77055;SDS011;67471;44.918;8.614;2023-04-03T15:23:50;3.55;;;2.00;;
77055;SDS011;67471;44.918;8.614;2023-04-03T15:26:54;3.60;;;1.73;;
77055;SDS011;67471;44.918;8.614;2023-04-03T15:29:58;3.75;;;1.50;;
77055;SDS011;67471;44.918;8.614;2023-04-03T15:33:02;2.97;;;1.48;;
77055;SDS011;67471;44.918;8.614;2023-04-03T15:36:06;3.08;;;1.73;;
77055;SDS011;67471;44.918;8.614;2023-04-03T15:39:10;3.30;;;1.80;;
77055;SDS011;67471;44.918;8.614;2023-04-03T15:42:13;2.83;;;1.60;;
77055;SDS011;67471;44.918;8.614;2023-04-03T15:45:17;3.03;;;1.52;;
77055;SDS011;67471;44.918;8.614;2023-04-03T15:48:21;3.13;;;1.90;;
77055;SDS011;67471;44.918;8.614;2023-04-03T15:51:25;3.88;;;1.60;;
77055;SDS011;67471;44.918;8.614;2023-04-03T15:54:29;4.90;;;1.95;;
77055;SDS011;67471;44.918;8.614;2023-04-03T15:57:33;3.22;;;1.80;;
77055;SDS011;67471;44.918;8.614;2023-04-03T16:00:37;3.78;;;2.28;;
77055;SDS011;67471;44.918;8.614;2023-04-03T16:03:41;3.45;;;1.90;;
77055;SDS011;67471;44.918;8.614;2023-04-03T16:06:48;3.10;;;1.98;;
77055;SDS011;67471;44.918;8.614;2023-04-03T16:09:53;6.18;;;2.17;;
77055;SDS011;67471;44.918;8.614;2023-04-03T16:12:57;4.15;;;2.15;;
77055;SDS011;67471;44.918;8.614;2023-04-03T16:16:01;3.17;;;2.03;;
77055;SDS011;67471;44.918;8.614;2023-04-03T16:19:05;4.43;;;2.40;;
77055;SDS011;67471;44.918;8.614;2023-04-03T16:22:09;3.85;;;2.10;;
77055;SDS011;67471;44.918;8.614;2023-04-03T16:25:13;2.92;;;1.85;;
77055;SDS011;67471;44.918;8.614;2023-04-03T16:28:17;2.53;;;1.67;;
77055;SDS011;67471;44.918;8.614;2023-04-03T16:31:21;3.13;;;1.85;;
77055;SDS011;67471;44.918;8.614;2023-04-03T16:34:27;4.38;;;1.80;;
77055;SDS011;67471;44.918;8.614;2023-04-03T16:37:33;3.17;;;2.10;;
77055;SDS011;67471;44.918;8.614;2023-04-03T16:40:37;5.03;;;1.67;;
77055;SDS011;67471;44.918;8.614;2023-04-03T16:43:41;4.05;;;2.25;;
77055;SDS011;67471;44.918;8.614;2023-04-03T16:46:45;2.92;;;1.50;;
77055;SDS011;67471;44.918;8.614;2023-04-03T16:49:48;6.95;;;1.38;;
77055;SDS011;67471;44.918;8.614;2023-04-03T16:52:52;2.83;;;1.25;;
77055;SDS011;67471;44.918;8.614;2023-04-03T16:55:57;3.45;;;1.48;;
77055;SDS011;67471;44.918;8.614;2023-04-03T16:59:01;2.42;;;1.33;;
77055;SDS011;67471;44.918;8.614;2023-04-03T17:02:05;4.68;;;1.48;;
77055;SDS011;67471;44.918;8.614;2023-04-03T17:05:08;3.83;;;1.60;;
77055;SDS011;67471;44.918;8.614;2023-04-03T17:08:12;3.40;;;1.17;;
77055;SDS011;67471;44.918;8.614;2023-04-03T17:11:17;6.07;;;1.73;;
77055;SDS011;67471;44.918;8.614;2023-04-03T17:14:21;3.75;;;1.63;;
77055;SDS011;67471;44.918;8.614;2023-04-03T17:17:25;3.47;;;1.48;;
77055;SDS011;67471;44.918;8.614;2023-04-03T17:20:29;4.60;;;2.38;;
77055;SDS011;67471;44.918;8.614;2023-04-03T17:23:33;2.70;;;1.30;;
77055;SDS011;67471;44.918;8.614;2023-04-03T17:26:40;3.28;;;1.40;;
77055;SDS011;67471;44.918;8.614;2023-04-03T17:29:45;6.63;;;1.40;;
77055;SDS011;67471;44.918;8.614;2023-04-03T17:32:48;2.22;;;1.25;;
77055;SDS011;67471;44.918;8.614;2023-04-03T17:35:52;4.45;;;1.55;;
77055;SDS011;67471;44.918;8.614;2023-04-03T17:38:59;5.07;;;1.52;;
77055;SDS011;67471;44.918;8.614;2023-04-03T17:42:03;4.95;;;1.98;;
77055;SDS011;67471;44.918;8.614;2023-04-03T17:45:07;7.22;;;1.75;;
77055;SDS011;67471;44.918;8.614;2023-04-03T17:48:11;3.65;;;1.92;;
77055;SDS011;67471;44.918;8.614;2023-04-03T17:51:17;6.00;;;1.75;;
77055;SDS011;67471;44.918;8.614;2023-04-03T17:54:23;5.18;;;3.22;;
77055;SDS011;67471;44.918;8.614;2023-04-03T17:57:27;3.88;;;2.03;;
77055;SDS011;67471;44.918;8.614;2023-04-03T18:00:35;3.92;;;2.40;;
77055;SDS011;67471;44.918;8.614;2023-04-03T18:03:39;3.63;;;2.50;;
77055;SDS011;67471;44.918;8.614;2023-04-03T18:06:45;5.95;;;2.50;;
77055;SDS011;67471;44.918;8.614;2023-04-03T18:09:52;4.53;;;2.93;;
77055;SDS011;67471;44.918;8.614;2023-04-03T18:12:58;5.57;;;2.95;;
77055;SDS011;67471;44.918;8.614;2023-04-03T18:16:05;7.90;;;2.50;;
77055;SDS011;67471;44.918;8.614;2023-04-03T18:19:10;3.80;;;2.60;;
77055;SDS011;67471;44.918;8.614;2023-04-03T18:22:15;6.43;;;2.67;;
77055;SDS011;67471;44.918;8.614;2023-04-03T18:25:22;5.97;;;2.72;;
77055;SDS011;67471;44.918;8.614;2023-04-03T18:28:26;4.10;;;2.58;;
77055;SDS011;67471;44.918;8.614;2023-04-03T18:31:32;5.30;;;3.25;;
77055;SDS011;67471;44.918;8.614;2023-04-03T18:34:37;4.78;;;2.75;;
77055;SDS011;67471;44.918;8.614;2023-04-03T18:37:41;7.50;;;2.63;;
77055;SDS011;67471;44.918;8.614;2023-04-03T18:40:45;4.22;;;2.53;;
77055;SDS011;67471;44.918;8.614;2023-04-03T18:43:49;4.03;;;2.25;;
77055;SDS011;67471;44.918;8.614;2023-04-03T18:46:53;4.90;;;2.20;;
77055;SDS011;67471;44.918;8.614;2023-04-03T18:49:58;3.45;;;2.25;;
77055;SDS011;67471;44.918;8.614;2023-04-03T18:53:02;3.28;;;2.15;;
77055;SDS011;67471;44.918;8.614;2023-04-03T18:56:06;4.30;;;2.33;;
77055;SDS011;67471;44.918;8.614;2023-04-03T18:59:10;3.65;;;2.10;;
77055;SDS011;67471;44.918;8.614;2023-04-03T19:02:14;4.45;;;2.05;;
77055;SDS011;67471;44.918;8.614;2023-04-03T19:05:19;7.38;;;2.30;;
77055;SDS011;67471;44.918;8.614;2023-04-03T19:08:24;5.72;;;1.92;;
77055;SDS011;67471;44.918;8.614;2023-04-03T19:11:28;3.92;;;1.90;;
77055;SDS011;67471;44.918;8.614;2023-04-03T19:14:33;4.55;;;1.80;;
77055;SDS011;67471;44.918;8.614;2023-04-03T19:17:37;6.20;;;1.80;;
77055;SDS011;67471;44.918;8.614;2023-04-03T19:20:40;4.28;;;1.45;;
77055;SDS011;67471;44.918;8.614;2023-04-03T19:23:44;2.88;;;1.50;;
77055;SDS011;67471;44.918;8.614;2023-04-03T19:26:48;3.13;;;1.40;;
77055;SDS011;67471;44.918;8.614;2023-04-03T19:29:52;4.28;;;1.55;;
77055;SDS011;67471;44.918;8.614;2023-04-03T19:32:56;3.88;;;1.60;;
77055;SDS011;67471;44.918;8.614;2023-04-03T19:36:03;6.25;;;1.70;;
77055;SDS011;67471;44.918;8.614;2023-04-03T19:39:07;6.05;;;1.50;;
77055;SDS011;67471;44.918;8.614;2023-04-03T19:42:11;3.92;;;1.35;;
77055;SDS011;67471;44.918;8.614;2023-04-03T19:45:15;8.15;;;1.40;;
77055;SDS011;67471;44.918;8.614;2023-04-03T19:48:20;2.70;;;1.75;;
77055;SDS011;67471;44.918;8.614;2023-04-03T19:51:25;2.53;;;1.20;;
77055;SDS011;67471;44.918;8.614;2023-04-03T19:54:30;8.13;;;1.35;;
77055;SDS011;67471;44.918;8.614;2023-04-03T19:57:33;2.50;;;1.30;;